• Join FlightAware (Why Join?)
  • Login
  • US Flag 
01:10AM EDT


 

Airport Tracker/Info


-or-


 

Live Flight TrackerFlight Track Log ✈ FLG3757 ✈ 16-Jan-2014 ✈ KBGM - KDTW

Flight Track Log - Related Links

Times and Time Zones

All times are in EST time to prevent confusion due to time zone crossing. See the FLG3757 flight status page for this flight to view local times or setup timezone preferences in your user account.

Time Position Orientation Groundspeed Altitude Reporting Facility
EST Latitude Longitude Course Direction KTS MPH feet Rate Location/Type
06:24AM 42.2519 -76.0600 289° West 208 239 4,800  Level Cleveland Center
06:25AM 42.2725 -76.1408 289° West 236 272 6,400 2,340 Climbing Cleveland Center
06:26AM 42.3006 -76.2319 293° West 257 296 9,600 2,580 Climbing Cleveland Center
06:27AM 42.3244 -76.3242 289° West 260 299 11,700 1,920 Climbing Cleveland Center
06:28AM 42.3544 -76.4342 290° West 284 327 13,600 1,740 Climbing Cleveland Center
06:29AM 42.2293 -76.6872 289° West  Level Estimated
06:29AM 42.3833 -76.5461 289° West 308 354 15,300  Level Cleveland Center
06:30AM 42.4164 -76.6603 291° West 322 371 17,000 1,320 Climbing Cleveland Center
06:31AM 42.4472 -76.7772 290° West 328 377 18,100 900 Climbing Cleveland Center
06:32AM 42.4811 -76.9025 290° West 347 399 18,900 900 Climbing Cleveland Center
06:33AM 42.5217 -77.0597 289° West 367 422 20,000 960 Climbing Cleveland Center
06:34AM 42.5561 -77.1928 289° West 374 430 20,900 840 Climbing Cleveland Center
06:35AM 42.5928 -77.3281 290° West 383 441 21,800 540 Climbing Cleveland Center
06:36AM 42.6269 -77.4586 290° West 384 442 22,000 60 Climbing Cleveland Center
06:37AM 42.6644 -77.6022 290° West 397 457 22,000  Level Cleveland Center
06:38AM 42.7000 -77.7403 289° West 405 466 22,000  Level Cleveland Center
06:39AM 42.7247 -77.9261 280° West 420 483 22,000  Level Cleveland Center
06:40AM 42.7289 -78.0839 272° West 420 483 22,000  Level Cleveland Center
06:41AM 42.7325 -78.2400 272° West 414 476 22,000  Level Cleveland Center
06:42AM 42.7350 -78.3931 271° West 407 468 22,000  Level Cleveland Center
06:43AM 42.7372 -78.5456 271° West 404 465 22,000  Level Cleveland Center
06:44AM 42.7403 -78.6958 272° West 400 460 22,000  Level Cleveland Center
06:45AM 42.7417 -78.8461 271° West 397 457 22,000  Level Cleveland Center
06:46AM 42.7436 -78.9947 271° West 395 455 22,000  Level Cleveland Center
06:47AM 42.7458 -79.1436 271° West 394 453 22,000  Level Cleveland Center
06:48AM 42.7475 -79.2911 271° West 392 451 22,000  Level Cleveland Center
06:49AM 42.7489 -79.4700 271° West 394 453 22,000  Level Cleveland Center
06:50AM 42.7333 -79.6161 262° West 392 451 22,000  Level Cleveland Center
06:51AM 42.7022 -79.7589 254° West 395 455 22,000  Level Cleveland Center
06:53AM 42.6731 -79.9019 255° West 394 453 22,000  Level Cleveland Center
06:54AM 42.6619 -80.0400 264° West 391 450 22,000  Level Cleveland Center
06:55AM 42.6719 -80.1903 275° West 395 455 22,000  Level Cleveland Center
06:56AM 42.6792 -80.3394 274° West 394 453 22,000  Level Cleveland Center
06:57AM 42.6878 -80.4797 275° West 377 434 22,000  Level Cleveland Center
06:58AM 42.6936 -80.6181 273° West 367 422 22,000  Level Cleveland Center
06:59AM 42.7019 -80.7811 274° West 369 425 22,000  Level Cleveland Center
07:00AM 42.7033 -80.9197 271° West 366 421 22,000  Level Cleveland Center
07:01AM 42.6875 -81.0528 261° West 358 412 22,000  Level Cleveland Center
07:02AM 42.6728 -81.1881 262° West 359 413 22,000  Level Cleveland Center
07:03AM 42.6575 -81.3228 261° West 358 412 22,000  Level Cleveland Center
07:04AM 42.6419 -81.4564 261° West 357 411 22,000  Level Cleveland Center
07:05AM 42.6264 -81.5903 261° West 357 411 22,000 -240 Level Cleveland Center
07:06AM 42.6106 -81.7253 261° West 359 413 21,600 -840 Descending Cleveland Center
07:07AM 42.5939 -81.8561 260° West 362 417 20,300 -1,320 Descending Cleveland Center
07:08AM 42.5775 -81.9875 260° West 358 412 18,900 -1,500 Descending Cleveland Center
07:09AM 42.5619 -82.1169 261° West 350 403 17,300 -1,740 Descending Cleveland Center
07:10AM 42.5472 -82.2517 262° West 343 395 15,700 -1,800 Descending Cleveland Center
07:10AM 42.5439 -82.2700 256° West 347 399 15,500 -1,500 Descending Cleveland Center
07:10AM 42.5378 -82.3267 262° West 326 375 14,800 -1,500 Descending Cleveland Center
07:11AM 42.5286 -82.3900 259° West 332 382 14,000 -1,500 Descending Cleveland Center
07:11AM 42.5211 -82.4464 260° West 327 376 13,300 -1,500 Descending Cleveland Center
07:12AM 42.5128 -82.5114 260° West 328 377 12,500 -1,320 Descending Cleveland Center
07:12AM 42.4981 -82.5678 251° West 329 379 12,000 -840 Descending Cleveland Center
07:13AM 42.4797 -82.6250 247° West 325 374 11,700 -900 Descending Cleveland Center
07:13AM 42.4608 -82.6761 243° Southwest 322 371 11,100 -1,200 Descending Cleveland Center
07:14AM 42.4417 -82.7325 245° Southwest 319 367 10,500 -1,200 Descending Cleveland Center
07:14AM 42.4264 -82.7764 245° Southwest 274 315 9,900 -1,020 Descending Cleveland Center
07:15AM 42.4194 -82.8258 259° West 274 315 9,500 -1,380 Descending Cleveland Center
07:15AM 42.4172 -82.8739 266° West 235 270 8,500 -2,040 Descending Cleveland Center
07:16AM 42.4236 -82.9142 282° West 244 281 7,400 -1,500 Descending Cleveland Center
07:16AM 42.4314 -82.9664 281° West 246 283 7,000 -1,020 Descending Cleveland Center
07:17AM 42.4361 -83.0047 279° West 244 281 6,400 -1,020 Descending Cleveland Center
07:17AM 42.4350 -83.0572 268° West 235 270 6,000 -600 Descending Cleveland Center
07:18AM 42.4247 -83.1067 254° West 233 268 5,800 -900 Descending Cleveland Center
07:18AM 42.4125 -83.1361 241° Southwest 224 258 5,100 -1,500 Descending Cleveland Center
07:19AM 42.3967 -83.1800 244° Southwest 224 258 4,300 -1,140 Descending Cleveland Center
07:19AM 42.3858 -83.2089 243° Southwest 203 234 4,000 -720 Descending Cleveland Center
07:20AM 42.3594 -83.2317 213° Southwest 200 230 3,600 -600 Descending Cleveland Center
07:20AM 42.3411 -83.2450 208° Southwest 168 193 3,400 -540 Descending Cleveland Center
07:21AM 42.3197 -83.2608 209° Southwest 177 204 3,100 -600 Descending Cleveland Center
07:21AM 42.3081 -83.2686 206° Southwest 115 132 2,800 -600 Descending Cleveland Center
07:22AM 42.2925 -83.2817 212° Southwest 138 159 2,500 -720 Descending Cleveland Center
07:23AM 42.2792 -83.2900 205° Southwest 119 137 2,100 -840 Descending Cleveland Center
07:23AM 42.2633 -83.3033 212° Southwest 125 144 1,700 -720 Descending Cleveland Center
07:24AM 42.2481 -83.3139 207° Southwest 126 145 1,400 -540 Descending Cleveland Center
07:24AM 42.2300 -83.3269 208° Southwest 123 142 1,200 -300 Descending Cleveland Center
07:26AM 42.2124 -83.3534 236° Southwest  Level Estimated
07:33AM 42.2124 -83.3534 236° Southwest  Level Estimated
07:34AM 42.2124 -83.3534 236° Southwest  Level Estimated